createdAt,value
2023-04-11T00:01:25.229Z,12.28
2023-04-11T00:03:53.396Z,12.23
2023-04-11T00:06:21.561Z,12.21
2023-04-11T00:08:49.594Z,12.21
2023-04-11T00:11:17.473Z,12.20
2023-04-11T00:13:48.756Z,12.19
2023-04-11T00:16:16.984Z,12.08
2023-04-11T00:18:44.910Z,11.97
2023-04-11T00:21:13.033Z,11.97
2023-04-11T00:23:41.102Z,11.91
2023-04-11T00:26:09.171Z,11.82
2023-04-11T00:28:37.137Z,11.77
2023-04-11T00:31:05.313Z,11.76
2023-04-11T00:33:33.208Z,11.78
2023-04-11T00:36:01.281Z,11.80
2023-04-11T00:38:28.854Z,11.77
2023-04-11T00:40:56.826Z,11.72
2023-04-11T00:43:24.831Z,11.56
2023-04-11T00:45:52.680Z,11.49
2023-04-11T00:48:20.388Z,11.41
2023-04-11T00:50:48.426Z,11.39
2023-04-11T00:53:17.613Z,11.27
2023-04-11T00:55:45.352Z,11.02
2023-04-11T00:58:13.006Z,11.07
2023-04-11T01:00:41.574Z,11.14
2023-04-11T01:03:09.847Z,11.12
2023-04-11T01:05:37.895Z,11.19
2023-04-11T01:08:05.663Z,11.31
2023-04-11T01:10:33.100Z,11.45
2023-04-11T01:13:00.334Z,11.53
2023-04-11T01:15:27.508Z,11.59
2023-04-11T01:17:55.671Z,11.70
2023-04-11T01:20:22.885Z,11.75
2023-04-11T01:22:53.706Z,11.76
2023-04-11T01:25:21.691Z,11.81
2023-04-11T01:27:49.823Z,11.84
2023-04-11T01:30:17.901Z,11.89
2023-04-11T01:32:45.764Z,11.87
2023-04-11T01:35:13.577Z,11.85
2023-04-11T01:37:40.948Z,11.77
2023-04-11T01:40:10.074Z,11.72
2023-04-11T01:42:38.169Z,11.79
2023-04-11T01:45:06.706Z,11.85
2023-04-11T01:47:34.293Z,11.91
2023-04-11T01:50:02.684Z,11.94
2023-04-11T01:52:30.390Z,11.92
2023-04-11T01:54:58.381Z,11.92
2023-04-11T01:57:26.531Z,11.84
2023-04-11T01:59:54.857Z,11.80
2023-04-11T02:02:23.013Z,11.82
2023-04-11T02:04:51.256Z,11.83
2023-04-11T02:07:20.913Z,11.79
2023-04-11T02:09:48.898Z,11.76
2023-04-11T02:12:16.466Z,11.66
2023-04-11T02:14:44.767Z,11.58
2023-04-11T02:17:13.373Z,11.47
2023-04-11T02:19:45.624Z,11.46
2023-04-11T02:22:13.989Z,11.40
2023-04-11T02:24:41.566Z,11.42
2023-04-11T02:27:09.976Z,11.39
2023-04-11T02:29:38.052Z,11.42
2023-04-11T02:32:05.869Z,11.43
2023-04-11T02:34:33.475Z,11.45
2023-04-11T02:37:01.496Z,11.49
2023-04-11T02:39:30.055Z,11.56
2023-04-11T02:41:58.227Z,11.59
2023-04-11T02:44:26.485Z,11.65
2023-04-11T02:46:54.595Z,11.71
2023-04-11T02:49:22.692Z,11.76
2023-04-11T02:51:50.507Z,11.82
2023-04-11T02:54:19.588Z,11.74
2023-04-11T02:56:47.357Z,11.68
2023-04-11T02:59:15.435Z,11.63
2023-04-11T03:01:43.410Z,11.54
2023-04-11T03:04:11.657Z,11.45
2023-04-11T03:06:39.538Z,11.41
2023-04-11T03:09:06.933Z,11.36
2023-04-11T03:11:34.479Z,11.40
2023-04-11T03:14:02.645Z,11.50
2023-04-11T03:16:31.033Z,11.56
2023-04-11T03:18:58.872Z,11.51
2023-04-11T03:21:27.537Z,11.49
2023-04-11T03:23:55.732Z,11.53
2023-04-11T03:26:27.279Z,11.54
2023-04-11T03:28:59.339Z,11.60
2023-04-11T03:31:27.673Z,11.62
2023-04-11T03:33:55.390Z,11.66
2023-04-11T03:36:23.195Z,11.67
2023-04-11T03:38:51.291Z,11.69
2023-04-11T03:41:19.551Z,11.69
2023-04-11T03:43:47.598Z,11.64
2023-04-11T03:46:15.741Z,11.61
2023-04-11T03:48:47.353Z,11.61
2023-04-11T03:51:15.396Z,11.65
2023-04-11T03:53:42.963Z,11.67
2023-04-11T03:56:11.370Z,11.69
2023-04-11T03:58:39.320Z,11.69
2023-04-11T04:01:08.026Z,11.71
2023-04-11T04:03:36.374Z,11.75
2023-04-11T04:06:07.756Z,11.72
2023-04-11T04:08:35.597Z,11.70
2023-04-11T04:11:03.175Z,11.55
2023-04-11T04:13:31.429Z,11.47
2023-04-11T04:16:01.253Z,11.48
2023-04-11T04:18:30.777Z,11.60
2023-04-11T04:20:58.754Z,11.70
2023-04-11T04:23:26.947Z,11.70
2023-04-11T04:25:58.064Z,11.66
2023-04-11T04:28:26.182Z,11.63
2023-04-11T04:30:54.583Z,11.59
2023-04-11T04:33:22.548Z,11.57
2023-04-11T04:35:51.768Z,11.53
2023-04-11T04:38:20.097Z,11.52
2023-04-11T04:40:50.556Z,11.56
2023-04-11T04:43:20.869Z,11.60
2023-04-11T04:45:49.012Z,11.57
2023-04-11T04:48:17.537Z,11.57
2023-04-11T04:50:48.154Z,11.58
2023-04-11T04:53:16.174Z,11.71
2023-04-11T04:55:44.114Z,11.71
2023-04-11T04:58:11.973Z,11.74
2023-04-11T05:00:40.334Z,11.69
2023-04-11T05:03:08.638Z,11.68
2023-04-11T05:05:36.900Z,11.68
2023-04-11T05:08:05.204Z,11.66
2023-04-11T05:10:32.835Z,11.70
2023-04-11T05:13:00.260Z,11.69
2023-04-11T05:15:28.108Z,11.69
2023-04-11T05:17:57.648Z,11.74
2023-04-11T05:20:26.829Z,11.78
2023-04-11T05:22:54.441Z,11.82
2023-04-11T05:25:22.744Z,11.90
2023-04-11T05:27:50.356Z,11.91
2023-04-11T05:30:17.953Z,11.89
2023-04-11T05:32:46.664Z,11.91
2023-04-11T05:35:14.483Z,11.91
2023-04-11T05:37:43.219Z,11.92
2023-04-11T05:40:12.414Z,11.94
2023-04-11T05:42:40.112Z,11.92
2023-04-11T05:45:11.853Z,11.94
2023-04-11T05:47:39.510Z,12.01
2023-04-11T05:50:09.840Z,12.01
2023-04-11T05:52:38.011Z,12.18
2023-04-11T05:55:07.959Z,12.32
2023-04-11T05:57:35.861Z,12.49
2023-04-11T06:00:13.269Z,12.65
2023-04-11T06:02:42.780Z,12.73
2023-04-11T06:05:12.393Z,12.82
2023-04-11T06:07:40.438Z,12.92
2023-04-11T06:10:10.452Z,13.01
2023-04-11T06:12:38.548Z,13.14
2023-04-11T06:15:09.551Z,13.31
2023-04-11T06:17:37.303Z,13.53
2023-04-11T06:20:07.270Z,13.77
2023-04-11T06:22:35.387Z,13.89
2023-04-11T06:25:03.312Z,14.00
2023-04-11T06:27:33.720Z,14.11
2023-04-11T06:30:01.439Z,14.23
2023-04-11T06:32:29.131Z,14.25
2023-04-11T06:34:57.279Z,14.23
2023-04-11T06:37:24.751Z,14.27
2023-04-11T06:39:53.211Z,14.24
2023-04-11T06:42:20.988Z,14.28
2023-04-11T06:44:50.316Z,14.36
2023-04-11T06:47:18.434Z,14.39
2023-04-11T06:49:46.362Z,14.37
2023-04-11T06:52:13.835Z,14.44
2023-04-11T06:54:41.954Z,14.50
2023-04-11T06:57:10.943Z,14.61
2023-04-11T06:59:38.504Z,14.69
2023-04-11T07:02:07.309Z,14.76
2023-04-11T07:04:36.203Z,14.75
2023-04-11T07:07:04.698Z,14.73
2023-04-11T07:09:32.668Z,14.73
2023-04-11T07:12:01.308Z,14.77
2023-04-11T07:14:29.317Z,14.87
2023-04-11T07:16:57.977Z,15.00
2023-04-11T07:19:25.767Z,15.09
2023-04-11T07:21:54.735Z,15.22
2023-04-11T07:24:22.506Z,15.36
2023-04-11T07:26:52.030Z,15.36
2023-04-11T07:29:19.405Z,15.31
2023-04-11T07:31:47.175Z,15.39
2023-04-11T07:34:14.776Z,15.48
2023-04-11T07:36:42.406Z,15.62
2023-04-11T07:39:12.321Z,15.63
2023-04-11T07:41:40.428Z,15.71
2023-04-11T07:44:09.478Z,15.77
2023-04-11T07:46:37.665Z,15.91
2023-04-11T07:49:05.438Z,16.00
2023-04-11T07:51:33.350Z,16.01
2023-04-11T07:54:01.186Z,16.14
2023-04-11T07:56:29.337Z,16.30
2023-04-11T07:58:58.616Z,16.47
2023-04-11T08:01:26.870Z,16.61
2023-04-11T08:03:55.013Z,16.66
2023-04-11T08:06:23.410Z,16.71
2023-04-11T08:08:52.174Z,16.70
2023-04-11T08:11:20.163Z,16.74
2023-04-11T08:13:47.787Z,16.78
2023-04-11T08:16:15.372Z,16.80
2023-04-11T08:18:43.194Z,16.88
2023-04-11T08:21:10.902Z,16.93
2023-04-11T08:23:39.770Z,17.00
2023-04-11T08:26:08.666Z,17.07
2023-04-11T08:28:36.394Z,17.16
2023-04-11T08:31:05.568Z,17.18
2023-04-11T08:33:33.709Z,17.18
2023-04-11T08:36:01.949Z,17.19
2023-04-11T08:38:30.097Z,17.30
2023-04-11T08:40:58.199Z,17.34
2023-04-11T08:43:25.907Z,17.52
2023-04-11T08:45:53.758Z,17.71
2023-04-11T08:48:25.484Z,17.91
2023-04-11T08:50:53.624Z,18.01
2023-04-11T08:53:24.655Z,18.19
2023-04-11T08:55:51.979Z,18.65
2023-04-11T08:58:20.369Z,18.69
2023-04-11T09:00:48.311Z,18.55
2023-04-11T09:03:17.164Z,18.67
2023-04-11T09:05:45.265Z,18.65
2023-04-11T09:08:13.817Z,18.76
2023-04-11T09:10:42.236Z,18.78
2023-04-11T09:13:35.671Z,18.77
2023-04-11T09:16:33.876Z,18.69
2023-04-11T09:19:01.763Z,18.68
2023-04-11T09:21:30.244Z,18.80
2023-04-11T09:24:14.573Z,18.94
2023-04-11T09:26:42.805Z,18.92
2023-04-11T09:29:11.054Z,18.96
2023-04-11T09:31:42.924Z,19.04
2023-04-11T09:34:12.049Z,19.04
2023-04-11T09:36:39.296Z,19.01
2023-04-11T09:39:19.228Z,18.80
2023-04-11T09:41:46.330Z,18.77
2023-04-11T09:44:14.030Z,18.91
2023-04-11T09:46:57.311Z,19.10
2023-04-11T09:49:24.740Z,19.38
2023-04-11T09:51:51.914Z,19.31
2023-04-11T09:54:22.415Z,19.29
2023-04-11T09:56:49.554Z,19.35
2023-04-11T09:59:17.566Z,19.34
2023-04-11T10:01:45.551Z,19.31
2023-04-11T10:04:13.967Z,19.27
2023-04-11T10:06:46.337Z,19.15
2023-04-11T10:09:13.836Z,19.05
2023-04-11T10:11:44.911Z,19.18
2023-04-11T10:14:39.317Z,19.41
2023-04-11T10:17:23.535Z,19.39
2023-04-11T10:19:56.425Z,19.44
2023-04-11T10:22:41.845Z,19.47
2023-04-11T10:25:19.828Z,19.70
2023-04-11T10:28:01.895Z,19.85
2023-04-11T10:30:40.841Z,19.90
2023-04-11T10:33:12.172Z,19.96
2023-04-11T10:36:05.628Z,20.10
2023-04-11T10:38:43.006Z,20.25
2023-04-11T10:41:31.923Z,20.29
2023-04-11T10:44:35.377Z,20.36
2023-04-11T10:47:03.556Z,20.37
2023-04-11T10:49:37.793Z,20.34
2023-04-11T10:52:22.526Z,20.69
2023-04-11T10:54:53.104Z,20.90
2023-04-11T10:57:22.327Z,21.02
2023-04-11T10:59:52.279Z,21.05
2023-04-11T11:02:22.104Z,21.16
2023-04-11T11:04:50.419Z,21.12
2023-04-11T11:07:18.846Z,21.32
2023-04-11T11:09:51.416Z,21.68
2023-04-11T11:12:19.353Z,21.54
2023-04-11T11:14:48.016Z,21.37
2023-04-11T11:17:16.540Z,21.28
2023-04-11T11:19:45.058Z,21.37
2023-04-11T11:22:38.837Z,21.46
2023-04-11T11:25:11.206Z,21.69
2023-04-11T11:27:38.908Z,21.94
2023-04-11T11:30:15.844Z,21.94
2023-04-11T11:32:43.151Z,21.85
2023-04-11T11:35:14.514Z,21.70
2023-04-11T11:37:42.131Z,21.71
2023-04-11T11:40:13.357Z,21.64
2023-04-11T11:42:41.374Z,21.82
2023-04-11T11:45:23.750Z,21.89
2023-04-11T11:47:51.632Z,21.96
2023-04-11T11:50:57.648Z,21.98
2023-04-11T11:53:25.576Z,21.58
2023-04-11T11:55:52.679Z,21.70
2023-04-11T11:58:20.417Z,21.94
2023-04-11T12:00:51.327Z,21.95
2023-04-11T12:03:23.528Z,22.14
2023-04-11T12:05:59.703Z,22.20
2023-04-11T12:08:34.151Z,21.98
2023-04-11T12:11:02.702Z,22.04
2023-04-11T12:13:31.148Z,21.98
2023-04-11T12:15:58.823Z,21.87
2023-04-11T12:18:27.784Z,22.27
2023-04-11T12:20:55.764Z,22.38
2023-04-11T12:23:24.163Z,22.43
2023-04-11T12:25:52.197Z,22.49
2023-04-11T12:28:19.645Z,22.40
2023-04-11T12:30:47.671Z,22.50
2023-04-11T12:33:16.538Z,22.86
2023-04-11T12:35:44.978Z,22.91
2023-04-11T12:38:14.977Z,23.06
2023-04-11T12:40:46.719Z,23.07
2023-04-11T12:43:14.371Z,23.45
2023-04-11T12:45:42.718Z,23.50
2023-04-11T12:48:10.568Z,23.54
2023-04-11T12:50:38.648Z,23.74
2023-04-11T12:53:06.682Z,23.99
2023-04-11T12:55:37.858Z,24.14
2023-04-11T12:58:08.093Z,24.01
2023-04-11T13:00:35.883Z,23.81
2023-04-11T13:03:04.923Z,23.55
2023-04-11T13:05:33.258Z,23.96
2023-04-11T13:08:01.637Z,23.90
2023-04-11T13:10:29.455Z,23.68
2023-04-11T13:13:00.556Z,24.13
2023-04-11T13:15:30.876Z,24.53
2023-04-11T13:17:58.981Z,24.93
2023-04-11T13:20:26.353Z,24.82
2023-04-11T13:22:54.435Z,25.01
2023-04-11T13:25:22.348Z,24.97
2023-04-11T13:27:50.309Z,24.52
2023-04-11T13:30:18.219Z,24.50
2023-04-11T13:32:46.258Z,24.57
2023-04-11T13:35:14.126Z,24.53
2023-04-11T13:37:42.144Z,24.29
2023-04-11T13:40:12.422Z,24.52
2023-04-11T13:42:42.939Z,24.31
2023-04-11T13:45:13.253Z,24.34
2023-04-11T13:47:41.031Z,23.76
2023-04-11T13:50:10.798Z,23.66
2023-04-11T13:52:38.590Z,23.83
2023-04-11T13:55:08.720Z,23.50
2023-04-11T13:57:36.469Z,23.30
2023-04-11T14:00:14.697Z,23.13
2023-04-11T14:02:42.315Z,23.43
2023-04-11T14:05:11.412Z,23.66
2023-04-11T14:07:39.582Z,23.94
2023-04-11T14:10:08.202Z,23.82
2023-04-11T14:12:36.313Z,23.51
2023-04-11T14:15:05.908Z,23.32
2023-04-11T14:17:34.022Z,23.56
2023-04-11T14:20:01.967Z,23.82
2023-04-11T14:22:30.064Z,24.01
2023-04-11T14:24:58.181Z,23.88
2023-04-11T14:27:26.428Z,23.94
2023-04-11T14:29:54.485Z,24.14
2023-04-11T14:32:21.978Z,23.95
2023-04-11T14:34:49.678Z,23.50
2023-04-11T14:37:17.573Z,23.30
2023-04-11T14:39:45.276Z,23.25
2023-04-11T14:42:13.548Z,23.30
2023-04-11T14:44:43.151Z,23.43
2023-04-11T14:47:10.936Z,23.39
2023-04-11T14:49:39.269Z,23.31
2023-04-11T14:52:06.855Z,23.38
2023-04-11T14:54:34.974Z,23.30
2023-04-11T14:57:03.846Z,23.44
2023-04-11T14:59:31.947Z,23.40
2023-04-11T15:02:00.021Z,23.13
2023-04-11T15:04:28.283Z,23.20
2023-04-11T15:06:57.005Z,23.09
2023-04-11T15:09:25.077Z,23.35
2023-04-11T15:11:59.764Z,23.34
2023-04-11T15:14:29.580Z,23.24
2023-04-11T15:16:57.443Z,23.17
2023-04-11T15:19:25.783Z,23.17
2023-04-11T15:21:53.905Z,23.30
2023-04-11T15:24:21.664Z,22.94
2023-04-11T15:26:49.097Z,23.29
2023-04-11T15:29:19.481Z,23.53
2023-04-11T15:31:47.656Z,23.22
2023-04-11T15:34:15.638Z,23.27
2023-04-11T15:36:45.196Z,23.52
2023-04-11T15:39:13.080Z,23.76
2023-04-11T15:41:41.517Z,23.52
2023-04-11T15:44:09.525Z,23.23
2023-04-11T15:46:37.777Z,22.91
2023-04-11T15:49:06.060Z,22.87
2023-04-11T15:51:33.979Z,22.76
2023-04-11T15:54:01.838Z,22.81
2023-04-11T15:56:34.084Z,23.02
2023-04-11T15:59:01.915Z,22.93
2023-04-11T16:01:30.126Z,22.99
2023-04-11T16:03:58.989Z,23.01
2023-04-11T16:06:27.484Z,22.90
2023-04-11T16:08:55.485Z,22.90
2023-04-11T16:11:23.558Z,22.91
2023-04-11T16:13:51.787Z,22.82
2023-04-11T16:16:20.017Z,22.86
2023-04-11T16:18:47.925Z,23.10
2023-04-11T16:21:15.849Z,23.17
2023-04-11T16:23:44.346Z,23.04
2023-04-11T16:26:12.317Z,23.04
2023-04-11T16:28:40.408Z,23.10
2023-04-11T16:31:09.392Z,23.23
2023-04-11T16:33:37.012Z,23.51
2023-04-11T16:36:05.709Z,23.87
2023-04-11T16:38:33.734Z,24.44
2023-04-11T16:41:01.473Z,24.83
2023-04-11T16:43:29.298Z,25.20
2023-04-11T16:45:57.367Z,25.55
2023-04-11T16:48:24.944Z,25.33
2023-04-11T16:50:53.262Z,24.73
2023-04-11T16:53:21.252Z,24.10
2023-04-11T16:55:49.363Z,23.51
2023-04-11T16:58:17.346Z,23.22
2023-04-11T17:00:49.260Z,23.08
2023-04-11T17:03:20.072Z,22.75
2023-04-11T17:05:47.948Z,22.75
2023-04-11T17:08:16.324Z,22.49
2023-04-11T17:10:44.304Z,22.53
2023-04-11T17:13:12.085Z,22.27
2023-04-11T17:15:39.772Z,21.94
2023-04-11T17:18:08.138Z,21.64
2023-04-11T17:20:36.162Z,21.50
2023-04-11T17:23:04.189Z,21.37
2023-04-11T17:25:32.051Z,21.37
2023-04-11T17:28:00.695Z,21.36
2023-04-11T17:32:57.614Z,21.24
2023-04-11T17:35:25.471Z,21.15
2023-04-11T17:37:53.546Z,21.09
2023-04-11T17:40:21.360Z,21.04
2023-04-11T17:42:49.843Z,20.91
2023-04-11T17:45:21.009Z,20.87
2023-04-11T17:47:48.693Z,20.81
2023-04-11T17:50:17.156Z,20.71
2023-04-11T17:52:45.217Z,20.60
2023-04-11T17:55:13.774Z,20.52
2023-04-11T17:57:41.267Z,20.36
2023-04-11T18:00:17.636Z,20.28
2023-04-11T18:02:46.724Z,20.23
2023-04-11T18:05:23.981Z,20.13
2023-04-11T18:07:57.424Z,20.00
2023-04-11T18:10:25.899Z,19.93
2023-04-11T18:12:53.246Z,19.91
2023-04-11T18:15:24.198Z,19.90
2023-04-11T18:17:55.229Z,19.81
2023-04-11T18:20:23.184Z,19.72
2023-04-11T18:22:52.390Z,19.56
2023-04-11T18:25:20.237Z,19.61
2023-04-11T18:27:47.872Z,19.58
2023-04-11T18:30:16.620Z,19.57
2023-04-11T18:32:49.385Z,19.58
2023-04-11T18:35:18.463Z,19.57
2023-04-11T18:37:46.466Z,19.53
2023-04-11T18:40:14.288Z,19.50
2023-04-11T18:42:49.478Z,19.45
2023-04-11T18:45:20.820Z,19.38
2023-04-11T18:47:49.203Z,19.30
2023-04-11T18:50:17.395Z,19.29
2023-04-11T18:52:46.598Z,19.21
2023-04-11T18:55:17.304Z,19.14
2023-04-11T18:57:48.152Z,18.96
2023-04-11T19:00:19.455Z,18.76
2023-04-11T19:02:47.814Z,18.59
2023-04-11T19:05:17.314Z,18.40
2023-04-11T19:07:45.895Z,18.25
2023-04-11T19:10:13.716Z,18.07
2023-04-11T19:12:41.519Z,17.93
2023-04-11T19:15:11.770Z,17.82
2023-04-11T19:17:39.560Z,17.73
2023-04-11T19:20:13.236Z,17.64
2023-04-11T19:22:41.771Z,17.56
2023-04-11T19:25:11.070Z,17.54
2023-04-11T19:27:42.640Z,17.60
2023-04-11T19:30:14.102Z,17.60
2023-04-11T19:32:44.042Z,17.58
2023-04-11T19:35:14.780Z,17.52
2023-04-11T19:37:42.802Z,17.47
2023-04-11T19:40:13.600Z,17.40
2023-04-11T19:42:41.856Z,17.32
2023-04-11T19:45:12.368Z,17.30
2023-04-11T19:47:41.036Z,17.25
2023-04-11T19:50:14.416Z,17.20
2023-04-11T19:52:42.470Z,17.16
2023-04-11T19:55:11.795Z,17.12
2023-04-11T19:57:40.232Z,17.02
2023-04-11T20:00:13.448Z,16.98
2023-04-11T20:02:44.779Z,16.93
2023-04-11T20:05:13.832Z,16.87
2023-04-11T20:07:42.495Z,16.81
2023-04-11T20:10:11.411Z,16.76
2023-04-11T20:12:39.408Z,16.66
2023-04-11T20:15:20.519Z,16.63
2023-04-11T20:17:50.155Z,16.52
2023-04-11T20:20:21.946Z,16.54
2023-04-11T20:22:49.634Z,16.52
2023-04-11T20:25:21.620Z,16.47
2023-04-11T20:28:02.171Z,16.39
2023-04-11T20:30:30.815Z,16.34
2023-04-11T20:32:58.713Z,16.27
2023-04-11T20:35:26.773Z,16.19
2023-04-11T20:37:54.915Z,16.15
2023-04-11T20:40:22.819Z,16.10
2023-04-11T20:42:50.759Z,16.04
2023-04-11T20:45:20.606Z,16.01
2023-04-11T20:47:49.931Z,15.97
2023-04-11T20:50:19.330Z,15.96
2023-04-11T20:52:47.534Z,15.90
2023-04-11T20:55:15.812Z,15.88
2023-04-11T20:57:44.789Z,15.86
2023-04-11T21:00:14.849Z,15.84
2023-04-11T21:02:44.404Z,15.82
2023-04-11T21:05:13.229Z,15.79
2023-04-11T21:07:42.274Z,15.79
2023-04-11T21:10:12.129Z,15.78
2023-04-11T21:12:39.817Z,15.77
2023-04-11T21:15:11.978Z,15.79
2023-04-11T21:17:40.073Z,15.82
2023-04-11T21:20:18.329Z,15.84
2023-04-11T21:22:47.809Z,15.86
2023-04-11T21:25:16.030Z,15.91
2023-04-11T21:27:43.770Z,15.91
2023-04-11T21:30:13.236Z,15.94
2023-04-11T21:32:40.845Z,15.95
2023-04-11T21:35:10.886Z,15.97
2023-04-11T21:37:39.066Z,15.98
2023-04-11T21:40:09.365Z,15.97
2023-04-11T21:42:36.962Z,15.94
2023-04-11T21:45:05.949Z,15.94
2023-04-11T21:47:33.996Z,15.98
2023-04-11T21:50:03.056Z,16.00
2023-04-11T21:52:30.564Z,15.94
2023-04-11T21:54:58.055Z,15.89
2023-04-11T21:57:26.102Z,15.90
2023-04-11T21:59:54.741Z,15.90
2023-04-11T22:02:22.780Z,15.87
2023-04-11T22:05:05.576Z,15.88
2023-04-11T22:07:38.544Z,15.84
2023-04-11T22:10:12.016Z,15.84
2023-04-11T22:12:41.715Z,15.84
2023-04-11T22:15:13.091Z,15.84
2023-04-11T22:17:42.509Z,15.92
2023-04-11T22:20:12.770Z,15.93
2023-04-11T22:22:40.645Z,15.90
2023-04-11T22:25:10.021Z,15.91
2023-04-11T22:27:38.473Z,15.91
2023-04-11T22:30:09.783Z,15.93
2023-04-11T22:32:38.076Z,15.96
2023-04-11T22:35:08.280Z,15.97
2023-04-11T22:37:36.332Z,15.95
2023-04-11T22:40:06.262Z,15.95
2023-04-11T22:42:33.447Z,15.91
2023-04-11T22:45:01.133Z,15.93
2023-04-11T22:47:28.786Z,15.90
2023-04-11T22:50:00.596Z,15.91
2023-04-11T22:52:30.406Z,15.92
2023-04-11T22:54:58.242Z,15.94
2023-04-11T22:57:26.151Z,15.96
2023-04-11T22:59:53.815Z,15.85
2023-04-11T23:02:21.516Z,15.82
2023-04-11T23:04:49.624Z,15.79
2023-04-11T23:07:17.769Z,15.84
2023-04-11T23:09:46.237Z,15.86
2023-04-11T23:12:14.348Z,15.87
2023-04-11T23:14:42.929Z,15.86
2023-04-11T23:17:10.752Z,15.87
2023-04-11T23:19:38.225Z,15.88
2023-04-11T23:22:06.501Z,15.87
2023-04-11T23:24:34.510Z,15.85
2023-04-11T23:27:02.400Z,15.83
2023-04-11T23:29:30.195Z,15.85
2023-04-11T23:31:58.199Z,15.82
2023-04-11T23:34:26.044Z,15.80
2023-04-11T23:36:54.056Z,15.79
2023-04-11T23:39:21.621Z,15.78
2023-04-11T23:41:49.380Z,15.75
2023-04-11T23:44:23.401Z,15.76
2023-04-11T23:46:51.029Z,15.80
2023-04-11T23:49:18.629Z,15.77
2023-04-11T23:51:46.051Z,15.76
2023-04-11T23:54:14.045Z,15.73
2023-04-11T23:56:43.739Z,15.72
2023-04-11T23:59:11.600Z,15.75
